Time;durP1;ratioP1;P1;durP2;ratioP2;P2;SDS_P1;SDS_P2;PMS_P1;PMS_P2;Temp;Humidity;BMP_temperature;BMP_pressure;BME280_temperature;BME280_humidity;BME280_pressure;Samples;Min_cycle;Max_cycle;Signal;HPM_P1;HPM_P2
2022/07/20 00:00:37;;;;;;;11.52;3.90;;;;;;;22.38;48.05;101326.13;5073286;28;20177;-71
2022/07/20 00:03:08;;;;;;;6.85;3.95;;;;;;;22.44;47.33;101314.47;5073572;28;20037;-72
2022/07/20 00:05:33;;;;;;;10.60;3.80;;;;;;;22.51;47.08;101315.31;5072741;28;20366;-71
2022/07/20 00:07:59;;;;;;;13.73;3.70;;;;;;;22.56;46.71;101308.41;5073494;28;20036;-71
2022/07/20 00:13:09;;;;;;;7.63;3.45;;;;;;;22.47;47.26;101311.34;5073211;28;20114;-72
2022/07/20 00:15:35;;;;;;;5.38;3.33;;;;;;;22.44;47.29;101295.50;5072948;28;20073;-72
2022/07/20 00:18:00;;;;;;;10.52;4.03;;;;;;;22.42;47.48;101291.31;5073114;28;20331;-71
2022/07/20 00:20:25;;;;;;;4.85;3.35;;;;;;;22.34;48.41;101297.78;5072443;28;20210;-72
2022/07/20 00:22:52;;;;;;;9.18;3.35;;;;;;;22.22;48.89;101292.09;5073140;28;20312;-71
2022/07/20 00:25:18;;;;;;;5.75;3.28;;;;;;;22.09;49.20;101284.75;5072890;28;20531;-72
2022/07/20 00:27:44;;;;;;;5.72;3.42;;;;;;;21.98;49.87;101277.25;5072525;28;20083;-72
2022/07/20 00:30:12;;;;;;;6.80;3.03;;;;;;;21.88;50.63;101269.47;5072751;28;20060;-72
2022/07/20 00:32:38;;;;;;;6.32;3.45;;;;;;;21.77;51.06;101278.22;5071533;28;20515;-72
2022/07/20 00:35:06;;;;;;;5.38;3.22;;;;;;;21.63;51.87;101275.47;5073095;28;20129;-71
2022/07/20 00:37:32;;;;;;;5.28;3.08;;;;;;;21.54;52.00;101267.69;5072581;28;20119;-72
2022/07/20 00:39:57;;;;;;;6.93;3.40;;;;;;;21.42;54.03;101281.78;5072887;28;20029;-71
2022/07/20 00:42:23;;;;;;;8.43;3.10;;;;;;;21.34;53.09;101286.53;5072587;28;20033;-71
2022/07/20 00:44:48;;;;;;;10.40;3.78;;;;;;;21.26;54.54;101282.13;5073291;28;20447;-71
2022/07/20 00:47:13;;;;;;;8.45;3.92;;;;;;;21.17;55.93;101280.56;5072595;28;20128;-71
2022/07/20 00:49:39;;;;;;;8.13;3.50;;;;;;;21.12;55.62;101271.22;5070868;28;20079;-72
2022/07/20 00:52:04;;;;;;;4.82;3.63;;;;;;;21.07;55.58;101273.66;5072253;28;20367;-71
2022/07/20 00:54:30;;;;;;;5.15;3.55;;;;;;;21.02;54.97;101268.00;5072068;28;20101;-72
2022/07/20 00:56:56;;;;;;;6.15;3.60;;;;;;;21.06;53.45;101274.69;5072543;28;20492;-72
2022/07/20 00:59:21;;;;;;;9.50;3.58;;;;;;;21.13;52.76;101286.38;5072432;28;20082;-72
2022/07/20 01:01:47;;;;;;;5.13;3.40;;;;;;;21.16;52.87;101276.22;5072101;28;20111;-72
2022/07/20 01:04:13;;;;;;;7.78;4.30;;;;;;;21.18;52.56;101277.66;5072326;28;20039;-72
2022/07/20 01:06:38;;;;;;;6.75;3.90;;;;;;;21.24;51.53;101278.75;5071968;28;20111;-71
2022/07/20 01:09:04;;;;;;;6.38;3.75;;;;;;;21.31;50.78;101285.03;5072160;28;20162;-72
2022/07/20 01:11:29;;;;;;;5.15;3.50;;;;;;;21.34;51.50;101291.94;5071517;28;20040;-71
2022/07/20 01:14:03;;;;;;;7.10;3.85;;;;;;;21.37;50.80;101291.53;5072092;28;20044;-71
2022/07/20 01:16:29;;;;;;;6.35;3.85;;;;;;;21.36;50.62;101287.97;5071776;28;20033;-74
2022/07/20 01:18:54;;;;;;;12.75;3.95;;;;;;;21.37;50.73;101291.53;5072015;28;20032;-71
2022/07/20 01:21:20;;;;;;;8.80;3.55;;;;;;;21.43;50.16;101309.69;5070865;28;20515;-71
2022/07/20 01:23:45;;;;;;;7.18;3.78;;;;;;;21.47;50.19;101300.13;5070163;28;20032;-71
2022/07/20 01:26:10;;;;;;;13.93;4.20;;;;;;;21.60;49.92;101318.31;5072104;28;20036;-71
2022/07/20 01:28:36;;;;;;;11.38;4.00;;;;;;;21.73;49.08;101310.25;5071427;28;20082;-72
2022/07/20 01:31:01;;;;;;;5.35;3.63;;;;;;;21.83;49.22;101312.59;5071928;28;20033;-71
2022/07/20 01:33:27;;;;;;;10.15;4.10;;;;;;;21.84;49.83;101322.41;5071063;28;20033;-71
2022/07/20 01:35:52;;;;;;;7.63;4.38;;;;;;;21.83;50.92;101320.72;5072254;28;20470;-72
2022/07/20 01:38:18;;;;;;;19.20;5.40;;;;;;;21.92;53.29;101321.41;5071285;28;20061;-72
2022/07/20 01:40:43;;;;;;;25.88;8.30;;;;;;;22.09;59.33;101328.09;5071083;28;20436;-71
2022/07/20 01:43:09;;;;;;;20.45;8.32;;;;;;;22.26;60.92;101325.03;5070909;28;20028;-71
2022/07/20 01:45:34;;;;;;;24.40;9.32;;;;;;;22.32;61.53;101335.09;5070803;28;20025;-72
2022/07/20 01:48:00;;;;;;;21.48;10.32;;;;;;;22.36;63.47;101325.50;5071339;28;20112;-71
2022/07/20 01:50:25;;;;;;;29.50;10.98;;;;;;;22.31;64.86;101339.66;5069532;28;20112;-71
2022/07/20 01:52:50;;;;;;;28.52;12.27;;;;;;;22.30;66.79;101346.13;5070719;28;20040;-72
2022/07/20 01:55:16;;;;;;;30.45;12.82;;;;;;;22.24;68.84;101340.66;5070792;28;20044;-71
2022/07/20 01:57:41;;;;;;;35.85;13.73;;;;;;;22.13;69.70;101348.34;5070221;28;20501;-72
2022/07/20 02:00:09;;;;;;;30.20;13.80;;;;;;;22.05;70.43;101358.50;5071037;28;20126;-72
2022/07/20 02:02:35;;;;;;;24.73;13.05;;;;;;;21.96;71.43;101352.44;5070843;28;20107;-71
2022/07/20 02:05:00;;;;;;;32.95;15.63;;;;;;;21.92;72.70;101348.47;5070608;28;20091;-72
2022/07/20 02:07:25;;;;;;;28.23;15.38;;;;;;;21.88;73.66;101350.75;5071310;28;20454;-71
2022/07/20 02:09:51;;;;;;;31.17;15.05;;;;;;;21.86;74.36;101352.81;5070196;28;20049;-72
2022/07/20 02:12:16;;;;;;;32.80;16.63;;;;;;;21.78;75.16;101340.28;5071273;28;20511;-71
2022/07/20 02:14:42;;;;;;;34.65;17.33;;;;;;;21.76;76.80;101347.78;5070431;28;20033;-72
2022/07/20 02:17:07;;;;;;;40.58;17.50;;;;;;;21.70;76.93;101351.28;5070853;28;20094;-72
2022/07/20 02:19:32;;;;;;;34.13;17.48;;;;;;;21.64;77.94;101350.22;5071088;28;20043;-72
2022/07/20 02:21:58;;;;;;;35.83;17.92;;;;;;;21.64;78.60;101346.69;5070231;28;20395;-71
2022/07/20 02:24:23;;;;;;;40.15;18.58;;;;;;;21.60;78.43;101345.41;5070691;28;20032;-71
2022/07/20 02:26:49;;;;;;;44.40;18.80;;;;;;;21.59;79.36;101343.75;5070033;28;20035;-72
2022/07/20 02:29:14;;;;;;;35.58;17.70;;;;;;;21.53;79.32;101337.25;5070412;28;20041;-72
2022/07/20 02:31:40;;;;;;;33.17;17.50;;;;;;;21.48;79.85;101335.13;5070556;28;20458;-71
2022/07/20 02:34:05;;;;;;;44.15;18.02;;;;;;;21.48;80.03;101335.13;5070252;28;20114;-71
2022/07/20 02:36:30;;;;;;;36.50;17.98;;;;;;;21.46;80.03;101339.03;5070594;28;20036;-71
2022/07/20 02:38:56;;;;;;;41.00;19.50;;;;;;;21.44;80.04;101339.25;5070531;28;20040;-72
2022/07/20 02:41:21;;;;;;;36.28;17.55;;;;;;;21.41;80.06;101339.66;5071197;28;20159;-71
2022/07/20 02:43:47;;;;;;;30.90;17.00;;;;;;;21.39;79.76;101338.16;5070315;28;20115;-72
2022/07/20 02:46:12;;;;;;;38.40;17.73;;;;;;;21.39;80.27;101349.00;5070842;28;20407;-72
2022/07/20 02:48:38;;;;;;;32.88;17.50;;;;;;;21.35;80.12;101351.28;5070786;28;20094;-71
2022/07/20 02:51:04;;;;;;;32.60;18.15;;;;;;;21.35;80.14;101339.59;5070195;28;20060;-72
2022/07/20 02:53:29;;;;;;;30.35;17.67;;;;;;;21.39;80.22;101344.44;5070703;28;20064;-71
2022/07/20 02:55:54;;;;;;;37.40;17.13;;;;;;;21.42;79.94;101343.19;5071645;28;20032;-72
2022/07/20 02:58:20;;;;;;;31.13;18.35;;;;;;;21.44;80.24;101346.53;5074693;28;20032;-72
2022/07/20 03:00:45;;;;;;;31.92;17.02;;;;;;;21.45;80.10;101351.75;5074636;28;20055;-75
2022/07/20 03:03:11;;;;;;;34.60;17.67;;;;;;;21.41;79.68;101345.06;5075154;28;20037;-72
2022/07/20 03:05:37;;;;;;;33.33;18.67;;;;;;;21.41;79.80;101342.34;5074713;28;20029;-71
2022/07/20 03:08:05;;;;;;;42.42;19.30;;;;;;;21.44;79.39;101355.50;5072723;28;20086;-72
2022/07/20 03:10:31;;;;;;;32.38;18.60;;;;;;;21.42;79.27;101357.56;5074509;28;20041;-71
2022/07/20 03:12:56;;;;;;;34.70;18.08;;;;;;;21.42;79.60;101354.00;5074123;28;20036;-72
2022/07/20 03:15:21;;;;;;;33.83;17.83;;;;;;;21.48;79.89;101353.22;5074426;28;20025;-71
2022/07/20 03:17:50;;;;;;;33.50;18.67;;;;;;;21.48;79.82;101359.47;5074058;28;20071;-72
2022/07/20 03:20:34;;;;;;;35.15;19.70;;;;;;;21.47;79.58;101356.97;5074215;28;20036;-71
2022/07/20 03:22:59;;;;;;;36.97;19.90;;;;;;;21.48;79.60;101353.22;5073881;28;20435;-71
2022/07/20 03:25:26;;;;;;;33.20;19.80;;;;;;;21.45;79.42;101365.28;5074265;28;20032;-71
2022/07/20 03:27:56;;;;;;;41.92;20.02;;;;;;;21.46;79.48;101366.13;5073527;28;20442;-72
2022/07/20 03:30:23;;;;;;;37.10;19.27;;;;;;;21.46;79.29;101358.00;5074324;28;20028;-72
2022/07/20 03:32:49;;;;;;;31.88;20.10;;;;;;;21.45;79.09;101359.88;5073828;28;20044;-72
2022/07/20 03:35:14;;;;;;;34.13;20.25;;;;;;;21.43;79.09;101374.63;5073858;28;20051;-71
2022/07/20 03:37:40;;;;;;;34.53;19.45;;;;;;;21.44;78.80;101387.16;5074095;28;20347;-71
2022/07/20 03:40:06;;;;;;;37.22;21.00;;;;;;;21.42;78.55;101398.16;5073489;28;20063;-72
2022/07/20 03:42:32;;;;;;;34.65;21.05;;;;;;;21.45;78.28;101399.63;5073840;28;20029;-71
2022/07/20 03:44:58;;;;;;;39.55;22.35;;;;;;;21.47;78.14;101408.41;5073318;28;20051;-72
2022/07/20 03:47:24;;;;;;;40.67;22.00;;;;;;;21.50;77.74;101405.31;5073852;28;20024;-71
2022/07/20 03:49:50;;;;;;;36.88;22.48;;;;;;;21.51;77.55;101400.75;5073756;28;20033;-71
2022/07/20 03:52:16;;;;;;;36.88;21.35;;;;;;;21.51;77.64;101398.84;5073166;28;20039;-72
2022/07/20 03:54:42;;;;;;;35.05;21.08;;;;;;;21.56;77.31;101403.72;5072294;28;20024;-72
2022/07/20 03:57:07;;;;;;;35.40;21.38;;;;;;;21.57;76.91;101410.78;5073309;28;20461;-71
2022/07/20 03:59:33;;;;;;;34.80;20.17;;;;;;;21.62;76.49;101408.31;5073615;28;20469;-71
2022/07/20 04:01:59;;;;;;;33.80;20.58;;;;;;;21.66;76.03;101410.44;5071744;28;20043;-72
2022/07/20 04:04:25;;;;;;;36.15;20.40;;;;;;;21.72;75.47;101414.22;5073558;28;20052;-71
2022/07/20 04:06:50;;;;;;;32.35;20.13;;;;;;;21.79;74.97;101417.78;5073222;28;20036;-72
2022/07/20 04:09:43;;;;;;;37.83;20.15;;;;;;;21.83;74.54;101413.66;5072943;28;21201;-71
2022/07/20 04:12:03;;;;;;;34.90;19.88;;;;;;;21.91;74.19;101431.59;5072499;28;20059;-72
2022/07/20 04:14:28;;;;;;;36.40;19.25;;;;;;;21.95;73.45;101423.94;5073386;28;20442;-72
2022/07/20 04:16:53;;;;;;;33.92;19.48;;;;;;;22.00;72.84;101427.72;5073188;28;20086;-72
2022/07/20 04:19:19;;;;;;;40.17;19.33;;;;;;;22.06;72.01;101423.34;5072416;28;20096;-72
2022/07/20 04:21:44;;;;;;;35.15;18.27;;;;;;;22.10;71.51;101434.63;5073389;28;20040;-71
2022/07/20 04:24:10;;;;;;;35.90;19.42;;;;;;;22.14;70.89;101433.19;5072405;28;20040;-72
2022/07/20 04:26:36;;;;;;;36.75;20.05;;;;;;;22.17;70.63;101428.19;5072707;28;20025;-72
2022/07/20 04:29:01;;;;;;;31.45;19.20;;;;;;;22.18;70.72;101435.31;5072705;28;20080;-71
2022/07/20 04:31:26;;;;;;;36.70;19.05;;;;;;;22.19;69.91;101436.13;5073052;28;20537;-71
2022/07/20 04:33:52;;;;;;;38.00;18.75;;;;;;;22.19;70.69;101436.13;5073065;28;20168;-72
2022/07/20 04:36:17;;;;;;;31.60;18.65;;;;;;;22.18;70.21;101451.56;5072682;28;20044;-72
2022/07/20 04:38:42;;;;;;;29.23;19.52;;;;;;;22.18;70.55;101454.28;5072971;28;20032;-71
2022/07/20 04:41:08;;;;;;;31.10;18.23;;;;;;;22.18;70.61;101456.13;5072175;28;20047;-71
2022/07/20 04:43:33;;;;;;;32.72;18.55;;;;;;;22.16;70.57;101459.03;5072877;28;20029;-72
2022/07/20 04:45:58;;;;;;;27.33;16.20;;;;;;;22.14;70.27;101466.53;5072543;28;20363;-71
2022/07/20 04:48:24;;;;;;;30.20;16.25;;;;;;;22.12;70.19;101473.19;5072571;28;20025;-72
2022/07/20 04:50:49;;;;;;;31.33;16.00;;;;;;;22.07;70.67;101478.38;5072651;28;20421;-72
2022/07/20 04:53:14;;;;;;;24.92;14.90;;;;;;;22.00;71.08;101476.47;5072335;28;20032;-71
2022/07/20 04:55:40;;;;;;;26.05;15.20;;;;;;;21.93;70.53;101470.19;5072778;28;20334;-71
2022/07/20 04:58:05;;;;;;;25.88;14.77;;;;;;;21.87;70.62;101468.28;5072186;28;20455;-71
2022/07/20 05:00:31;;;;;;;26.23;13.40;;;;;;;21.81;69.97;101467.19;5072620;28;20089;-71
2022/07/20 05:02:56;;;;;;;23.80;13.00;;;;;;;21.76;69.55;101471.53;5072513;28;20039;-71
2022/07/20 05:05:21;;;;;;;24.10;13.65;;;;;;;21.73;69.26;101486.28;5072063;28;20028;-71
2022/07/20 05:07:47;;;;;;;21.25;12.13;;;;;;;21.72;67.84;101472.94;5072422;28;20036;-71
2022/07/20 05:10:12;;;;;;;25.00;12.63;;;;;;;21.73;68.08;101477.34;5071813;28;20060;-71
2022/07/20 05:12:37;;;;;;;26.95;11.73;;;;;;;21.72;67.42;101479.22;5072323;28;20037;-71
2022/07/20 05:15:03;;;;;;;20.95;11.48;;;;;;;21.70;67.80;101483.97;5072289;28;20029;-71
2022/07/20 05:17:28;;;;;;;23.15;11.77;;;;;;;21.69;67.56;101495.84;5071712;28;20040;-70
2022/07/20 05:19:54;;;;;;;20.80;11.45;;;;;;;21.70;67.98;101493.97;5071592;28;20119;-71
2022/07/20 05:22:19;;;;;;;22.23;11.50;;;;;;;21.71;67.80;101501.06;5071473;28;20068;-72
2022/07/20 05:24:44;;;;;;;21.27;11.18;;;;;;;21.71;68.20;101499.19;5072129;28;20083;-71
2022/07/20 05:27:10;;;;;;;21.60;11.30;;;;;;;21.70;67.95;101502.09;5071657;28;20031;-72
2022/07/20 05:29:35;;;;;;;20.20;10.23;;;;;;;21.72;68.65;101508.16;5071715;28;20043;-71
2022/07/20 05:32:00;;;;;;;20.70;10.18;;;;;;;21.70;69.09;101504.81;5071977;28;20031;-71
2022/07/20 05:34:26;;;;;;;23.67;10.48;;;;;;;21.70;69.67;101502.09;5070047;28;20075;-72
2022/07/20 05:36:51;;;;;;;21.42;11.05;;;;;;;21.70;70.31;101518.34;5070568;28;20028;-71
2022/07/20 05:39:16;;;;;;;22.00;10.55;;;;;;;21.67;69.99;101528.50;5071121;28;20020;-72
2022/07/20 05:41:41;;;;;;;18.70;9.98;;;;;;;21.70;70.33;101532.72;5053762;28;20462;-72
2022/07/20 05:44:07;;;;;;;21.35;10.75;;;;;;;21.74;69.88;101542.13;5071424;28;20036;-72
2022/07/20 05:46:32;;;;;;;20.40;9.85;;;;;;;21.77;69.62;101533.59;5071154;28;20047;-72
2022/07/20 05:48:58;;;;;;;18.67;10.25;;;;;;;21.83;68.46;101534.69;5071573;28;20029;-71
2022/07/20 05:51:23;;;;;;;20.50;9.55;;;;;;;21.89;67.86;101535.78;5070883;28;20035;-72
2022/07/20 05:53:48;;;;;;;23.75;9.20;;;;;;;21.97;68.12;101527.50;5071566;28;20453;-72
2022/07/20 05:56:14;;;;;;;20.25;9.93;;;;;;;22.09;67.72;101546.75;5071062;28;20490;-74
2022/07/20 05:58:39;;;;;;;18.98;9.30;;;;;;;22.21;66.04;101555.16;5070430;28;20062;-72
2022/07/20 06:01:04;;;;;;;16.48;9.00;;;;;;;22.32;66.44;101549.22;5071404;28;20040;-72
2022/07/20 06:03:30;;;;;;;19.58;9.65;;;;;;;22.46;66.22;101561.78;5071205;28;20113;-71
2022/07/20 06:05:55;;;;;;;16.98;9.45;;;;;;;22.57;65.59;101564.97;5070977;28;20033;-72
2022/07/20 06:08:20;;;;;;;21.05;8.88;;;;;;;22.68;64.94;101565.25;5071265;28;20041;-72
2022/07/20 06:10:46;;;;;;;19.77;9.15;;;;;;;22.76;63.94;101571.53;5069943;28;20045;-72
2022/07/20 06:13:11;;;;;;;16.90;8.30;;;;;;;22.85;63.88;101594.72;5069990;28;20032;-72
2022/07/20 06:15:37;;;;;;;19.45;9.18;;;;;;;22.91;63.68;101599.34;5071370;28;20513;-80
2022/07/20 06:18:02;;;;;;;22.65;9.60;;;;;;;23.03;64.13;101605.84;5071365;28;20036;-79
2022/07/20 06:20:28;;;;;;;19.17;9.10;;;;;;;23.20;63.67;101613.69;5072918;28;20086;-80
2022/07/20 06:22:53;;;;;;;19.92;10.18;;;;;;;23.39;63.51;101620.19;5072575;28;20052;-81
2022/07/20 06:25:19;;;;;;;17.15;8.23;;;;;;;23.56;62.45;101645.09;5072149;28;20033;-86
2022/07/20 06:27:44;;;;;;;20.02;8.95;;;;;;;23.43;62.50;101648.63;5072499;28;20063;-89
2022/07/20 06:30:12;;;;;;;20.27;8.75;;;;;;;23.33;62.92;101664.47;5070220;28;20086;-85
2022/07/20 06:32:38;;;;;;;24.02;9.15;;;;;;;23.29;63.51;101669.47;5086639;28;20105;-87
2022/07/20 06:35:04;;;;;;;19.90;8.77;;;;;;;23.16;64.23;101678.38;5089422;28;20046;-81
2022/07/20 06:37:30;;;;;;;21.67;9.10;;;;;;;23.12;64.67;101670.84;5090007;28;20032;-80
2022/07/20 06:39:55;;;;;;;15.65;7.97;;;;;;;23.14;64.89;101668.75;5088661;28;20093;-86
2022/07/20 06:42:21;;;;;;;18.10;8.73;;;;;;;23.24;64.75;101702.66;5089209;28;20036;-77
2022/07/20 06:44:47;;;;;;;19.55;8.77;;;;;;;23.18;64.04;101695.28;5089450;28;20121;-78
2022/07/20 06:47:13;;;;;;;28.50;9.05;;;;;;;23.20;64.52;101704.09;5088688;28;20100;-77
2022/07/20 06:49:38;;;;;;;27.10;9.43;;;;;;;23.23;64.82;101708.28;5089079;28;20112;-79
2022/07/20 06:52:04;;;;;;;20.98;8.40;;;;;;;23.18;65.06;101695.28;5089524;28;20119;-72
2022/07/20 06:54:30;;;;;;;26.63;9.00;;;;;;;23.17;65.20;101712.66;5088368;28;20110;-72
2022/07/20 06:56:55;;;;;;;21.45;9.02;;;;;;;23.20;65.88;101716.84;5089076;28;20143;-72
2022/07/20 06:59:21;;;;;;;21.40;8.93;;;;;;;23.28;65.78;101722.09;5088545;28;20028;-72
2022/07/20 07:01:46;;;;;;;24.08;9.02;;;;;;;23.45;66.28;101719.84;5087865;28;20036;-73
2022/07/20 07:04:11;;;;;;;21.92;9.15;;;;;;;23.63;65.57;101738.28;5088300;28;20035;-75
2022/07/20 07:06:37;;;;;;;22.35;8.30;;;;;;;23.83;65.33;101735.63;5087590;28;20494;-78
2022/07/20 07:09:03;;;;;;;18.50;8.75;;;;;;;23.76;64.53;101742.94;5087298;28;20043;-79
2022/07/20 07:11:29;;;;;;;19.23;8.73;;;;;;;23.67;65.87;101749.59;5087026;28;20395;-77
2022/07/20 07:13:54;;;;;;;19.00;8.50;;;;;;;23.52;65.42;101747.84;5085183;28;20028;-78
2022/07/20 07:16:19;;;;;;;20.13;8.23;;;;;;;23.58;65.91;101757.91;5091148;28;20508;-78
2022/07/20 07:18:45;;;;;;;16.95;7.70;;;;;;;23.63;64.64;101753.75;5091240;28;20032;-78
2022/07/20 07:21:10;;;;;;;19.42;7.28;;;;;;;23.69;63.10;101756.50;5091992;28;20386;-80
2022/07/20 07:23:35;;;;;;;21.35;7.85;;;;;;;23.74;62.44;101751.28;5091258;28;20131;-75
2022/07/20 07:26:02;;;;;;;18.77;7.90;;;;;;;23.87;63.05;101726.06;5091916;28;20457;-77
2022/07/20 07:28:27;;;;;;;19.67;7.28;;;;;;;23.77;61.51;101741.88;5090450;28;20036;-75
2022/07/20 07:30:53;;;;;;;19.20;8.25;;;;;;;23.64;62.89;101752.72;5091118;28;20028;-73
2022/07/20 07:33:25;;;;;;;30.15;8.25;;;;;;;23.64;62.71;101753.53;5092411;28;20085;-74
2022/07/20 07:35:51;;;;;;;22.77;8.30;;;;;;;23.68;61.90;101754.00;5091567;28;20063;-75
2022/07/20 07:38:17;;;;;;;18.15;8.07;;;;;;;23.81;61.77;101755.88;5090239;28;20032;-77
2022/07/20 07:40:42;;;;;;;16.48;8.02;;;;;;;23.97;60.45;101754.72;5090932;28;20480;-78
2022/07/20 07:43:07;;;;;;;21.52;7.55;;;;;;;24.03;61.81;101756.59;5093663;28;20032;-79
2022/07/20 07:45:33;;;;;;;18.10;8.20;;;;;;;24.27;60.67;101742.41;5095102;28;20438;-82
2022/07/20 07:47:58;;;;;;;21.17;7.90;;;;;;;24.59;60.39;101749.97;5095442;28;20032;-81
2022/07/20 07:50:23;;;;;;;17.90;8.18;;;;;;;24.92;57.70;101746.38;5093824;28;20089;-81
2022/07/20 07:52:49;;;;;;;17.17;7.63;;;;;;;25.18;57.53;101753.59;5094573;28;20036;-75
2022/07/20 07:55:14;;;;;;;21.38;7.65;;;;;;;25.17;55.98;101763.66;5095082;28;20028;-76
2022/07/20 07:57:41;;;;;;;20.05;7.72;;;;;;;25.29;57.15;101771.16;5094742;28;20126;-76
2022/07/20 08:00:08;;;;;;;15.07;7.57;;;;;;;25.57;54.51;101781.75;5095051;28;20062;-76
2022/07/20 08:02:33;;;;;;;26.90;7.35;;;;;;;25.76;54.99;101780.00;5094990;28;20032;-79
2022/07/20 08:04:58;;;;;;;18.13;6.97;;;;;;;25.91;53.03;101773.44;5093178;28;20040;-76
2022/07/20 08:07:24;;;;;;;15.80;7.43;;;;;;;26.11;51.90;101785.09;5093527;28;20036;-74
2022/07/20 08:09:49;;;;;;;13.55;6.75;;;;;;;26.32;50.03;101777.56;5092481;28;20418;-71
2022/07/20 08:12:14;;;;;;;16.48;5.82;;;;;;;26.20;49.62;101766.56;5092926;28;20028;-71
2022/07/20 08:14:40;;;;;;;21.02;6.25;;;;;;;26.35;49.00;101771.69;5093891;28;20028;-72
2022/07/20 08:17:05;;;;;;;25.17;6.78;;;;;;;26.57;48.92;101755.75;5094869;28;20477;-72
2022/07/20 08:19:31;;;;;;;15.85;5.95;;;;;;;26.71;47.72;101759.22;5094286;28;20032;-73
2022/07/20 08:21:56;;;;;;;18.00;5.82;;;;;;;26.85;46.25;101741.63;5093082;28;20028;-72
2022/07/20 08:24:21;;;;;;;18.60;5.00;;;;;;;26.74;44.98;101750.59;5094461;28;20024;-73
2022/07/20 08:26:47;;;;;;;18.73;4.93;;;;;;;26.48;44.13;101752.47;5094053;28;20028;-73
2022/07/20 08:29:12;;;;;;;20.90;5.43;;;;;;;26.18;44.99;101746.84;5094398;28;20103;-73
2022/07/20 08:31:37;;;;;;;16.98;4.13;;;;;;;26.14;45.00;101745.59;5094309;28;20119;-72
2022/07/20 08:34:03;;;;;;;17.98;4.03;;;;;;;26.41;45.63;101757.16;5092537;28;20039;-72
2022/07/20 08:36:28;;;;;;;21.48;3.92;;;;;;;26.34;44.60;101751.75;5094134;28;20059;-76
2022/07/20 08:38:54;;;;;;;24.00;3.83;;;;;;;26.32;45.34;101737.50;5093756;28;20036;-75
2022/07/20 08:41:21;;;;;;;19.63;4.38;;;;;;;26.53;45.23;101738.16;5094211;28;20036;-76
2022/07/20 08:43:46;;;;;;;17.83;4.13;;;;;;;26.60;45.15;101741.66;5093668;28;20028;-72
2022/07/20 08:46:12;;;;;;;27.38;5.07;;;;;;;26.23;46.56;101741.56;5093921;28;20055;-73
2022/07/20 08:48:41;;;;;;;22.15;4.93;;;;;;;25.88;47.48;101766.50;5093959;28;20039;-73
2022/07/20 08:51:06;;;;;;;17.05;4.07;;;;;;;25.35;48.50;101756.75;5093393;28;20462;-72
2022/07/20 08:53:32;;;;;;;16.13;3.65;;;;;;;24.99;48.62;101753.47;5092883;28;20057;-71
2022/07/20 08:55:57;;;;;;;28.67;4.28;;;;;;;24.80;50.40;101757.88;5093379;28;20198;-72
2022/07/20 08:58:22;;;;;;;22.55;4.65;;;;;;;24.74;50.87;101775.06;5093440;28;20035;-73
2022/07/20 09:00:48;;;;;;;16.75;5.05;;;;;;;24.68;50.96;101765.03;5092194;28;20462;-72
2022/07/20 09:03:13;;;;;;;12.80;4.78;;;;;;;24.43;52.44;101746.59;5092253;28;20499;-72
2022/07/20 09:05:40;;;;;;;16.65;5.25;;;;;;;24.45;53.25;101695.56;5093529;28;20036;-73
2022/07/20 09:08:11;;;;;;;12.57;4.43;;;;;;;24.47;53.18;101670.88;5093131;28;20035;-74
2022/07/20 09:10:39;;;;;;;13.80;4.03;;;;;;;24.77;51.93;101646.75;5093409;28;20052;-74
2022/07/20 09:13:18;;;;;;;12.40;4.85;;;;;;;25.16;50.72;101636.75;5093140;28;20024;-74
2022/07/20 09:15:50;;;;;;;10.85;4.70;;;;;;;25.45;50.66;101622.78;5093593;28;20036;-74
2022/07/20 09:18:27;;;;;;;14.30;4.82;;;;;;;25.76;49.60;101615.66;5093410;28;20066;-73
2022/07/20 09:20:57;;;;;;;10.98;4.43;;;;;;;25.83;49.45;101669.06;5093028;28;20043;-74
2022/07/20 09:23:24;;;;;;;14.68;5.07;;;;;;;25.86;50.67;101788.53;5093212;28;20024;-74
2022/07/20 09:25:59;;;;;;;13.38;5.00;;;;;;;26.78;47.84;101825.50;5092797;28;20028;-75
2022/07/20 09:28:38;;;;;;;16.15;5.63;;;;;;;28.48;45.35;101790.19;5093366;28;20024;-74
2022/07/20 09:31:29;;;;;;;16.65;6.55;;;;;;;29.80;40.42;101770.56;5092701;28;20028;-74
2022/07/20 09:33:57;;;;;;;;;;;;;;;30.83;37.39;101787.94;5093197;28;20031;-74
2022/07/20 09:36:24;;;;;;;11.70;5.03;;;;;;;31.09;37.82;101778.16;5093357;28;20393;-74
2022/07/20 09:38:50;;;;;;;9.45;4.95;;;;;;;31.74;35.76;101787.50;5092637;28;20047;-75
2022/07/20 09:41:28;;;;;;;13.02;5.95;;;;;;;30.51;37.51;101802.28;5092915;28;20477;-74
2022/07/20 09:43:55;;;;;;;14.82;6.72;;;;;;;29.36;40.60;101806.75;5092462;28;20028;-74
2022/07/20 09:46:24;;;;;;;13.73;6.13;;;;;;;29.44;41.37;101796.44;5093049;28;20028;-74
2022/07/20 09:48:51;;;;;;;12.43;5.85;;;;;;;29.50;40.00;101800.94;5091660;28;20028;-75
2022/07/20 09:51:22;;;;;;;10.57;5.95;;;;;;;29.48;40.67;101817.63;5092931;28;20024;-73
2022/07/20 09:53:50;;;;;;;9.55;4.93;;;;;;;28.84;41.44;101845.81;5092805;28;20481;-74
2022/07/20 09:56:16;;;;;;;10.23;4.72;;;;;;;28.11;42.34;101856.00;5092479;28;20061;-74
2022/07/20 09:58:48;;;;;;;9.55;4.60;;;;;;;27.21;44.46;101857.41;5091454;28;20028;-74
2022/07/20 10:01:18;;;;;;;7.90;4.13;;;;;;;26.39;46.75;101860.19;5092382;28;20119;-73
2022/07/20 10:03:49;;;;;;;9.32;4.22;;;;;;;25.78;48.00;101869.72;5092560;28;20146;-73
2022/07/20 10:06:16;;;;;;;7.93;3.60;;;;;;;25.29;48.39;101861.03;5092220;28;20397;-77
2022/07/20 10:08:43;;;;;;;8.90;3.70;;;;;;;24.87;49.63;101836.81;5091508;28;20053;-77
2022/07/20 10:11:08;;;;;;;8.18;3.90;;;;;;;24.63;52.73;101833.69;5090023;28;20052;-78
2022/07/20 10:13:35;;;;;;;12.85;4.30;;;;;;;24.51;55.96;101856.22;5092002;28;20038;-71
2022/07/20 10:16:10;;;;;;;12.68;4.40;;;;;;;24.88;58.30;101882.00;5091799;28;20093;-72
2022/07/20 10:18:36;;;;;;;9.93;3.67;;;;;;;25.59;56.94;101874.19;5090494;28;20028;-73
2022/07/20 10:21:30;;;;;;;13.07;4.65;;;;;;;25.75;58.15;101881.91;5087350;28;20024;-73
2022/07/20 10:24:14;;;;;;;8.35;4.22;;;;;;;25.68;59.13;101864.75;5086048;28;20019;-74
2022/07/20 10:26:40;;;;;;;16.63;4.55;;;;;;;25.26;57.56;101869.63;5087959;28;20042;-73
2022/07/20 10:29:05;;;;;;;11.25;4.43;;;;;;;24.97;61.77;101872.59;5088451;28;20032;-72
2022/07/20 10:31:50;;;;;;;14.50;4.80;;;;;;;25.09;64.94;101891.03;5088306;28;20073;-79
2022/07/20 10:34:45;;;;;;;17.27;5.03;;;;;;;25.98;62.92;101886.00;5086860;28;20028;-79
2022/07/20 10:37:23;;;;;;;14.70;5.75;;;;;;;27.26;56.93;101889.56;5089091;28;20032;-78
2022/07/20 10:39:50;;;;;;;12.90;5.75;;;;;;;27.95;51.16;101908.56;5089237;28;20028;-82
2022/07/20 10:42:33;;;;;;;18.05;5.68;;;;;;;28.01;49.72;101880.31;5087734;28;20119;-80
2022/07/20 10:45:19;;;;;;;21.63;6.65;;;;;;;29.02;49.03;101887.84;5088202;28;20082;-73
2022/07/20 10:47:48;;;;;;;15.15;6.00;;;;;;;29.68;44.72;101904.97;5086440;28;20044;-75
2022/07/20 10:50:28;;;;;;;13.50;5.22;;;;;;;29.77;43.58;101888.97;5088241;28;20032;-81
2022/07/20 10:52:59;;;;;;;12.45;5.75;;;;;;;28.42;46.00;101886.88;5088831;28;20028;-81
2022/07/20 10:55:33;;;;;;;13.00;5.80;;;;;;;27.26;48.65;101889.56;5085954;28;20028;-76
2022/07/20 10:58:05;;;;;;;11.10;5.40;;;;;;;25.69;53.67;101902.69;5088672;28;20111;-72
2022/07/20 11:00:37;;;;;;;13.95;5.78;;;;;;;24.70;56.58;101892.69;5089062;28;20064;-75
2022/07/20 11:03:04;;;;;;;16.75;6.47;;;;;;;24.11;59.88;101870.59;5088827;28;20349;-75
2022/07/20 11:05:29;;;;;;;16.00;6.97;;;;;;;23.43;68.17;101857.69;5089423;28;20069;-74
2022/07/20 11:07:55;;;;;;;15.45;6.68;;;;;;;22.52;70.58;101815.03;5088321;28;20028;-73
2022/07/20 11:10:26;;;;;;;13.32;6.82;;;;;;;21.90;75.37;101802.91;5087823;28;20056;-73
2022/07/20 11:12:58;;;;;;;15.65;6.07;;;;;;;21.47;74.11;101818.00;5089299;28;20030;-73
2022/07/20 11:15:37;;;;;;;15.25;6.75;;;;;;;21.24;79.72;101803.72;5088797;28;20078;-75
2022/07/20 11:18:04;;;;;;;17.73;6.80;;;;;;;21.11;81.45;101742.16;5092278;28;20135;-73